Ronkonkoma, New York
Current Conditions -  °F | °C
As of 5:56 PM on Wednesday 22 Oct 2014 (Local Time) from KISP Reporting Station
Light Rain Light Rain  
Wind Chill: 53°   Ceiling: 1400
Heat Index: 53°   Visibility: 6mi
Dew Point: 49°   Wind: 20mph
Humidity: 86%   Direction: 20°NNE
Pressure: 29.75"   Gusts: 31mph
Location:  40.81°N, 73.1°W
Report Text: KISP 222156Z 02017G27KT 6SM -RA BR BKN014 OVC020 12/09 A2975 RMK AO2 PK WND 02031/2101 SLP074 P0005 T01170094
Loading
Personal Weather Stations






























Interactive Weather Map
Tropical Storm Tracking
New forecast layout! Learn more

10-Day Weather Forecast

Advertisements
Track Severe Weather on mobile